Time;durP1;ratioP1;P1;durP2;ratioP2;P2;SDS_P1;SDS_P2;PMS_P1;PMS_P2;Temp;Humidity;BMP_temperature;BMP_pressure;BME280_temperature;BME280_humidity;BME280_pressure;Samples;Min_cycle;Max_cycle;Signal;HPM_P1;HPM_P2
2023/02/15 00:01:52;;;;;;;27.00;20.70;;;2.20;99.90;;;;;;5011965;28;20222;-64
2023/02/15 00:04:20;;;;;;;29.70;20.40;;;1.40;99.90;;;;;;5015746;28;20183;-64
2023/02/15 00:06:46;;;;;;;29.95;20.45;;;2.10;99.90;;;;;;5014940;28;20558;-64
2023/02/15 00:09:12;;;;;;;31.50;21.33;;;1.80;99.90;;;;;;5009961;28;20306;-64
2023/02/15 00:11:51;;;;;;;28.00;20.55;;;1.90;99.90;;;;;;5021905;28;20211;-64
2023/02/15 00:14:22;;;;;;;27.27;19.83;;;1.70;99.90;;;;;;5023201;28;20785;-64
2023/02/15 00:16:50;;;;;;;31.77;19.92;;;1.40;99.90;;;;;;5023040;28;20225;-65
2023/02/15 00:19:17;;;;;;;29.38;20.10;;;2.00;99.90;;;;;;5020591;28;20240;-65
2023/02/15 00:21:43;;;;;;;27.63;18.63;;;2.10;99.90;;;;;;5021713;28;20674;-65
2023/02/15 00:24:12;;;;;;;25.73;19.20;;;1.70;99.90;;;;;;5020391;28;20191;-65
2023/02/15 00:26:39;;;;;;;25.50;18.50;;;1.80;99.90;;;;;;5023293;28;20261;-64
2023/02/15 00:29:05;;;;;;;25.42;18.58;;;2.00;99.90;;;;;;5014870;28;20202;-64
2023/02/15 00:31:32;;;;;;;27.08;19.70;;;2.00;99.90;;;;;;5012992;28;20615;-64
2023/02/15 00:34:06;;;;;;;28.17;18.95;;;2.10;99.90;;;;;;5011609;28;20179;-64
2023/02/15 00:36:32;;;;;;;27.40;18.85;;;2.00;99.90;;;;;;5019732;28;20210;-64
2023/02/15 00:38:58;;;;;;;26.13;20.05;;;1.80;99.90;;;;;;5015125;28;20186;-64
2023/02/15 00:41:24;;;;;;;27.55;19.85;;;2.00;99.90;;;;;;5017782;28;20198;-64
2023/02/15 00:43:50;;;;;;;26.83;19.17;;;1.70;99.90;;;;;;5016673;28;20691;-64
2023/02/15 00:46:16;;;;;;;28.47;19.00;;;1.70;99.90;;;;;;5013885;28;20214;-64
2023/02/15 00:48:41;;;;;;;28.47;20.03;;;1.10;99.90;;;;;;5010737;28;20908;-64
2023/02/15 00:51:07;;;;;;;26.50;19.20;;;1.40;99.90;;;;;;5008297;28;20219;-64
2023/02/15 00:53:32;;;;;;;24.50;18.67;;;1.50;99.90;;;;;;5012398;28;20206;-64
2023/02/15 00:55:58;;;;;;;26.73;19.97;;;1.70;99.90;;;;;;5007256;28;20321;-65
2023/02/15 00:58:24;;;;;;;26.27;19.57;;;1.40;99.90;;;;;;5012492;28;20524;-64
2023/02/15 01:00:51;;;;;;;26.77;18.23;;;1.30;99.90;;;;;;5008696;28;21298;-64
2023/02/15 01:03:19;;;;;;;28.50;18.77;;;1.60;99.90;;;;;;5013067;28;20183;-65
2023/02/15 01:05:47;;;;;;;26.83;17.83;;;1.40;99.90;;;;;;5012704;28;20238;-64
2023/02/15 01:08:12;;;;;;;30.92;21.80;;;1.00;99.90;;;;;;5013327;28;20273;-65
2023/02/15 01:10:38;;;;;;;24.90;18.93;;;0.90;99.90;;;;;;5006741;28;20286;-65
2023/02/15 01:13:04;;;;;;;26.70;18.47;;;1.80;99.90;;;;;;5013098;28;20206;-65
2023/02/15 01:15:29;;;;;;;23.97;18.40;;;1.00;99.90;;;;;;5015592;28;20763;-64
2023/02/15 01:17:55;;;;;;;24.43;17.93;;;1.20;99.90;;;;;;5015819;28;20469;-64
2023/02/15 01:20:24;;;;;;;28.30;19.70;;;1.40;99.90;;;;;;5007395;28;20814;-64
2023/02/15 01:22:50;;;;;;;26.17;18.48;;;1.50;99.90;;;;;;5006245;28;20191;-65
2023/02/15 01:25:17;;;;;;;23.25;16.48;;;1.80;99.90;;;;;;5010646;28;20175;-64
2023/02/15 01:27:43;;;;;;;27.33;18.38;;;1.80;99.90;;;;;;5016706;28;20700;-65
2023/02/15 01:30:10;;;;;;;26.75;18.58;;;1.40;99.90;;;;;;5014628;28;20778;-64
2023/02/15 01:32:35;;;;;;;24.23;18.60;;;1.80;99.90;;;;;;5010495;28;20582;-64
2023/02/15 01:35:01;;;;;;;20.80;16.27;;;1.60;99.90;;;;;;5008991;28;20183;-64
2023/02/15 01:37:27;;;;;;;25.60;18.63;;;0.90;99.90;;;;;;5019141;28;20211;-65
2023/02/15 01:39:53;;;;;;;23.93;17.13;;;1.40;99.90;;;;;;5022310;28;20620;-64
2023/02/15 01:42:24;;;;;;;25.55;17.88;;;1.50;99.90;;;;;;5015943;28;20605;-64
2023/02/15 01:44:55;;;;;;;26.20;17.98;;;1.40;99.90;;;;;;5026123;28;20200;-64
2023/02/15 01:47:47;;;;;;;24.33;18.08;;;1.30;99.90;;;;;;5016116;28;20225;-64
2023/02/15 01:50:20;;;;;;;26.58;18.38;;;1.30;99.90;;;;;;5019423;28;20202;-64
2023/02/15 01:52:52;;;;;;;27.45;17.48;;;1.20;99.90;;;;;;5018304;28;20218;-64
2023/02/15 01:55:18;;;;;;;22.83;17.15;;;1.70;99.90;;;;;;5021301;28;20396;-64
2023/02/15 01:57:46;;;;;;;26.10;17.25;;;1.20;99.90;;;;;;5017976;28;20207;-64
2023/02/15 02:00:13;;;;;;;27.70;18.10;;;1.90;99.90;;;;;;5015485;28;20182;-64
2023/02/15 02:02:42;;;;;;;25.02;17.55;;;1.60;99.90;;;;;;5020930;28;20216;-64
2023/02/15 02:05:08;;;;;;;24.30;16.65;;;2.00;99.90;;;;;;5014395;28;20201;-64
2023/02/15 02:07:40;;;;;;;25.23;18.13;;;0.90;99.90;;;;;;5009460;28;20199;-64
2023/02/15 02:10:10;;;;;;;28.33;17.65;;;1.40;99.90;;;;;;5018403;28;20186;-64
2023/02/15 02:12:38;;;;;;;23.70;17.95;;;1.10;99.90;;;;;;5013084;28;20210;-64
2023/02/15 02:15:05;;;;;;;24.92;17.63;;;1.10;99.90;;;;;;5022527;28;20547;-64
2023/02/15 02:17:46;;;;;;;23.38;16.58;;;1.10;99.90;;;;;;5017499;28;20207;-64
2023/02/15 02:20:41;;;;;;;29.83;17.63;;;1.30;99.90;;;;;;5008125;28;20222;-64
2023/02/15 02:23:18;;;;;;;26.50;17.92;;;1.40;99.90;;;;;;5017657;28;20248;-64
2023/02/15 02:26:35;;;;;;;25.77;17.70;;;1.50;99.90;;;;;;5014291;28;20703;-64
2023/02/15 02:29:33;;;;;;;22.65;16.10;;;1.60;99.90;;;;;;5011616;28;20206;-64
2023/02/15 02:32:23;;;;;;;23.60;16.58;;;1.50;99.90;;;;;;5014473;28;20750;-64
2023/02/15 02:35:20;;;;;;;22.92;17.05;;;1.40;99.90;;;;;;5015520;28;20521;-64
2023/02/15 02:37:51;;;;;;;23.52;16.98;;;1.20;99.90;;;;;;5013702;28;20286;-65
2023/02/15 02:40:48;;;;;;;26.40;17.25;;;1.10;99.90;;;;;;5017168;28;20202;-64
2023/02/15 02:43:40;;;;;;;24.00;16.92;;;1.00;99.90;;;;;;5016816;28;20195;-64
2023/02/15 02:46:26;;;;;;;28.17;18.30;;;1.20;99.90;;;;;;5010453;28;20210;-64
2023/02/15 02:48:52;;;;;;;25.10;18.02;;;0.90;99.90;;;;;;5017758;28;20227;-64
2023/02/15 02:51:21;;;;;;;25.70;18.38;;;1.00;99.90;;;;;;5015443;28;20647;-64
2023/02/15 02:53:51;;;;;;;25.80;18.60;;;1.20;99.90;;;;;;5020773;28;20538;-64
2023/02/15 02:56:26;;;;;;;23.23;16.80;;;1.20;99.90;;;;;;5023780;28;20638;-64
2023/02/15 02:59:05;;;;;;;24.23;17.30;;;1.20;99.90;;;;;;5022343;28;20222;-64
2023/02/15 03:01:58;;;;;;;25.13;17.25;;;1.10;99.90;;;;;;5016008;28;20665;-64
2023/02/15 03:04:30;;;;;;;26.88;17.90;;;0.90;99.90;;;;;;5021744;28;20423;-64
2023/02/15 03:07:00;;;;;;;24.52;16.63;;;1.00;99.90;;;;;;5022385;28;20206;-64
2023/02/15 03:09:44;;;;;;;26.23;18.63;;;-0.20;99.90;;;;;;5017416;28;20199;-64
2023/02/15 03:12:17;;;;;;;24.88;17.60;;;0.70;99.90;;;;;;5016305;28;20205;-64
2023/02/15 03:15:12;;;;;;;23.02;16.80;;;0.90;99.90;;;;;;5017951;28;20244;-64
2023/02/15 03:17:43;;;;;;;24.48;17.27;;;0.90;99.90;;;;;;5015948;28;20265;-64
2023/02/15 03:20:15;;;;;;;21.30;15.73;;;0.40;99.90;;;;;;5022609;28;20187;-64
2023/02/15 03:22:50;;;;;;;24.77;17.23;;;1.30;99.90;;;;;;5023229;28;20186;-64
2023/02/15 03:25:26;;;;;;;23.13;16.92;;;1.10;99.90;;;;;;5021942;28;20652;-64
2023/02/15 03:27:55;;;;;;;22.13;15.80;;;1.00;99.90;;;;;;5028260;28;20206;-64
2023/02/15 03:30:22;;;;;;;23.15;16.17;;;0.60;99.90;;;;;;5024157;28;20252;-64
2023/02/15 03:32:50;;;;;;;18.70;14.95;;;1.10;99.90;;;;;;5010976;28;20210;-65
2023/02/15 03:35:16;;;;;;;23.83;16.63;;;1.10;99.90;;;;;;5022275;28;20344;-64
2023/02/15 03:37:49;;;;;;;26.20;18.10;;;1.00;99.90;;;;;;5023266;28;20206;-64
2023/02/15 03:41:22;;;;;;;20.90;16.30;;;1.10;99.90;;;;;;5022457;28;20269;-65
2023/02/15 03:43:38;;;;;;;24.75;17.08;;;1.10;99.90;;;;;;5016656;28;20194;-64
2023/02/15 03:46:27;;;;;;;19.98;16.23;;;1.10;99.90;;;;;;5015989;28;20198;-64
2023/02/15 03:48:57;;;;;;;25.08;16.85;;;1.00;99.90;;;;;;5019681;28;20190;-64
2023/02/15 03:51:34;;;;;;;25.33;17.25;;;1.30;99.90;;;;;;5028336;28;20264;-64
2023/02/15 03:54:41;;;;;;;22.70;15.88;;;1.00;99.90;;;;;;5019033;28;20182;-64
2023/02/15 04:02:44;;;;;;;24.40;16.45;;;0.80;99.90;;;;;;5018487;28;20304;-64
2023/02/15 04:05:10;;;;;;;25.73;16.65;;;0.80;99.90;;;;;;5026880;28;20273;-64
2023/02/15 04:07:35;;;;;;;23.53;15.57;;;0.10;99.90;;;;;;5020473;28;20717;-64
2023/02/15 04:12:45;;;;;;;24.48;16.25;;;0.00;99.90;;;;;;5023710;28;20303;-64
2023/02/15 04:17:58;;;;;;;24.00;17.60;;;0.70;99.90;;;;;;5020407;28;20612;-64
2023/02/15 04:25:52;;;;;;;26.13;16.65;;;0.80;99.90;;;;;;5023270;28;20274;-64
2023/02/15 04:28:17;;;;;;;25.57;17.37;;;0.50;99.90;;;;;;5022501;28;20274;-64
2023/02/15 04:30:43;;;;;;;25.50;16.80;;;0.60;99.90;;;;;;5027323;28;20558;-64
2023/02/15 04:33:08;;;;;;;23.03;15.80;;;0.50;99.90;;;;;;5017717;28;20219;-64
2023/02/15 04:35:34;;;;;;;22.47;15.43;;;0.50;99.90;;;;;;5023198;28;20225;-64
2023/02/15 04:37:59;;;;;;;22.57;16.37;;;1.00;99.90;;;;;;5016404;28;20202;-64
2023/02/15 04:40:25;;;;;;;23.67;16.20;;;0.40;99.90;;;;;;5019795;28;20198;-64
2023/02/15 04:42:51;;;;;;;25.97;17.00;;;0.30;99.90;;;;;;5018151;28;20293;-64
2023/02/15 04:45:17;;;;;;;27.57;17.57;;;-0.30;99.90;;;;;;5025451;28;20656;-64
2023/02/15 04:47:43;;;;;;;24.63;17.70;;;0.50;99.90;;;;;;5018459;28;20235;-64
2023/02/15 04:50:09;;;;;;;24.10;17.93;;;0.70;99.90;;;;;;5021036;28;20225;-64
2023/02/15 04:52:35;;;;;;;29.02;19.40;;;0.40;99.90;;;;;;5017229;28;20470;-64
2023/02/15 04:55:00;;;;;;;26.17;16.57;;;0.90;99.90;;;;;;5014284;28;20183;-64
2023/02/15 04:57:26;;;;;;;25.80;18.37;;;-0.10;99.90;;;;;;5022270;28;20512;-65
2023/02/15 04:59:52;;;;;;;23.10;17.57;;;0.50;99.90;;;;;;5017170;28;20201;-64
2023/02/15 05:02:17;;;;;;;25.37;17.60;;;0.20;99.90;;;;;;5018013;28;20222;-65
2023/02/15 05:04:43;;;;;;;24.97;16.73;;;0.50;99.90;;;;;;5020424;28;20197;-64
2023/02/15 05:07:08;;;;;;;22.53;17.10;;;0.50;99.90;;;;;;5012384;28;20721;-63
2023/02/15 05:09:34;;;;;;;24.23;18.17;;;0.60;99.90;;;;;;5012963;28;20186;-65
2023/02/15 05:11:59;;;;;;;23.87;17.90;;;0.00;99.90;;;;;;5017996;28;20682;-63
2023/02/15 05:14:25;;;;;;;21.87;15.63;;;0.00;99.90;;;;;;5016889;28;20190;-63
2023/02/15 05:16:51;;;;;;;27.47;17.27;;;0.50;99.90;;;;;;5014915;28;20330;-62
2023/02/15 05:19:16;;;;;;;22.00;16.47;;;0.50;99.90;;;;;;5019173;28;20614;-63
2023/02/15 05:21:42;;;;;;;23.60;17.43;;;-0.10;99.90;;;;;;5016387;28;20207;-65
2023/02/15 05:29:36;;;;;;;22.60;17.35;;;-0.20;99.90;;;;;;5015487;28;20194;-64
2023/02/15 05:32:02;;;;;;;24.70;17.10;;;0.20;99.90;;;;;;5021271;28;20206;-65
2023/02/15 05:34:27;;;;;;;22.63;16.63;;;0.20;99.90;;;;;;5016889;28;20186;-65
2023/02/15 05:36:53;;;;;;;23.40;16.80;;;0.30;99.90;;;;;;5010767;28;20207;-65
2023/02/15 05:39:18;;;;;;;23.00;16.70;;;0.00;99.90;;;;;;5014267;28;20179;-63
2023/02/15 05:41:44;;;;;;;23.50;17.80;;;-0.30;99.90;;;;;;5022385;28;20194;-64
2023/02/15 05:44:09;;;;;;;25.30;17.30;;;0.30;99.90;;;;;;5024059;28;20628;-63
2023/02/15 05:46:35;;;;;;;24.43;17.70;;;0.20;99.90;;;;;;5013657;28;20211;-63
2023/02/15 05:49:01;;;;;;;25.03;17.50;;;0.40;99.90;;;;;;5020398;28;20193;-65
2023/02/15 05:51:26;;;;;;;27.10;17.93;;;0.30;99.90;;;;;;5023574;28;20206;-64
2023/02/15 05:53:53;;;;;;;23.90;17.38;;;-0.20;99.90;;;;;;5015178;28;20573;-65
2023/02/15 05:56:18;;;;;;;26.90;17.97;;;0.30;99.90;;;;;;5010399;28;20203;-65
2023/02/15 05:58:44;;;;;;;27.30;17.33;;;0.50;99.90;;;;;;5013879;28;20594;-65
2023/02/15 06:01:10;;;;;;;26.13;19.00;;;-0.30;99.90;;;;;;5010432;28;20595;-64
2023/02/15 06:03:36;;;;;;;32.10;21.35;;;0.80;99.90;;;;;;5008957;28;20187;-64
2023/02/15 06:06:04;;;;;;;21.77;17.20;;;-0.30;99.90;;;;;;5014440;28;20865;-65
2023/02/15 06:08:30;;;;;;;29.55;18.95;;;0.30;99.90;;;;;;5014708;28;20544;-64
2023/02/15 06:10:56;;;;;;;24.75;17.63;;;-0.20;99.90;;;;;;5018803;28;20660;-64
2023/02/15 06:13:21;;;;;;;24.47;18.00;;;0.40;99.90;;;;;;5010114;28;20218;-63
2023/02/15 06:15:47;;;;;;;23.83;18.23;;;0.50;99.90;;;;;;5019817;28;20499;-64
2023/02/15 06:18:12;;;;;;;28.70;19.20;;;-0.20;99.90;;;;;;5010263;28;20325;-63
2023/02/15 06:20:38;;;;;;;28.23;18.60;;;0.40;99.90;;;;;;5019672;28;20192;-64
2023/02/15 06:23:03;;;;;;;24.60;17.90;;;0.00;99.90;;;;;;5015240;28;20252;-64
2023/02/15 06:25:29;;;;;;;23.73;16.97;;;0.50;99.90;;;;;;5008659;28;20208;-65
2023/02/15 06:27:54;;;;;;;25.00;18.30;;;0.50;99.90;;;;;;5019044;28;20714;-64
2023/02/15 06:30:20;;;;;;;26.47;18.63;;;0.50;99.90;;;;;;5012631;28;20277;-64
2023/02/15 06:32:46;;;;;;;21.80;16.90;;;0.40;99.90;;;;;;5002723;28;20219;-64
2023/02/15 06:35:11;;;;;;;29.10;16.63;;;0.90;99.90;;;;;;5010235;28;20445;-64
2023/02/15 06:37:37;;;;;;;23.67;18.40;;;0.20;99.90;;;;;;5006468;28;20285;-64
2023/02/15 06:40:03;;;;;;;27.50;19.10;;;0.30;99.90;;;;;;5006961;28;20214;-64
2023/02/15 06:42:29;;;;;;;26.38;17.98;;;0.60;99.90;;;;;;5008284;28;20613;-65
2023/02/15 06:44:55;;;;;;;25.20;18.80;;;0.80;99.90;;;;;;5007715;28;20353;-65
2023/02/15 06:47:20;;;;;;;28.90;19.67;;;0.40;99.90;;;;;;5008946;28;20237;-64
2023/02/15 06:49:46;;;;;;;27.43;20.83;;;0.40;99.90;;;;;;5008500;28;20189;-65
2023/02/15 06:52:12;;;;;;;25.13;18.00;;;1.00;99.90;;;;;;5007367;28;20216;-65
2023/02/15 06:54:37;;;;;;;24.43;17.57;;;0.40;99.90;;;;;;5010839;28;20723;-64
2023/02/15 06:57:03;;;;;;;30.60;18.87;;;0.60;99.90;;;;;;5010100;28;20230;-65
2023/02/15 06:59:28;;;;;;;25.63;18.43;;;0.60;99.90;;;;;;5013084;28;20209;-64
2023/02/15 07:01:54;;;;;;;28.00;18.87;;;0.70;99.90;;;;;;5014187;28;20682;-65
2023/02/15 07:04:19;;;;;;;24.50;18.07;;;-0.20;99.90;;;;;;5019286;28;20225;-65
2023/02/15 07:06:45;;;;;;;27.30;18.80;;;0.50;99.90;;;;;;5013164;28;20214;-65
2023/02/15 07:09:12;;;;;;;22.10;16.10;;;0.40;99.90;;;;;;5016308;28;20184;-65
2023/02/15 07:14:22;;;;;;;27.60;17.65;;;0.80;99.90;;;;;;5009343;28;20205;-64
2023/02/15 07:16:47;;;;;;;22.27;16.70;;;1.10;99.90;;;;;;5013322;28;20210;-65
2023/02/15 07:19:13;;;;;;;25.97;17.20;;;1.00;99.90;;;;;;5014910;28;20179;-65
2023/02/15 07:21:39;;;;;;;31.00;18.80;;;1.20;99.90;;;;;;5011056;28;20184;-65
2023/02/15 07:24:04;;;;;;;22.73;17.40;;;1.30;99.90;;;;;;5006933;28;20186;-64
2023/02/15 07:26:32;;;;;;;22.40;15.93;;;1.10;99.90;;;;;;4999141;28;20213;-65
2023/02/15 07:28:57;;;;;;;26.13;16.92;;;1.20;99.90;;;;;;5014577;28;20225;-65
2023/02/15 07:31:23;;;;;;;25.90;16.80;;;1.20;99.90;;;;;;5012736;28;20206;-65
2023/02/15 07:33:49;;;;;;;23.23;16.60;;;1.20;99.90;;;;;;4999512;28;20233;-63
2023/02/15 07:36:14;;;;;;;26.93;18.07;;;0.50;99.90;;;;;;5007932;28;20696;-67
2023/02/15 07:38:41;;;;;;;24.60;18.37;;;1.10;99.90;;;;;;5007675;28;20183;-65
2023/02/15 07:41:12;;;;;;;28.90;17.38;;;0.50;99.90;;;;;;5006742;28;20230;-65
2023/02/15 07:43:40;;;;;;;28.58;16.55;;;1.10;99.90;;;;;;5022496;28;20198;-65
2023/02/15 07:46:09;;;;;;;26.08;18.10;;;1.00;99.90;;;;;;5013836;28;20245;-65
2023/02/15 07:48:35;;;;;;;27.73;17.58;;;0.50;99.90;;;;;;5014967;28;20258;-65
2023/02/15 07:51:03;;;;;;;26.30;18.75;;;1.60;99.90;;;;;;5009391;28;20233;-67
2023/02/15 07:53:29;;;;;;;26.23;16.88;;;0.90;99.90;;;;;;5018131;28;20248;-67
2023/02/15 07:55:58;;;;;;;33.90;18.35;;;1.30;99.90;;;;;;5015304;28;20178;-67
2023/02/15 07:58:50;;;;;;;25.55;17.67;;;1.10;99.90;;;;;;5014748;28;20597;-65
2023/02/15 08:01:09;;;;;;;22.77;16.80;;;1.30;99.90;;;;;;5023221;28;20189;-67
2023/02/15 08:03:35;;;;;;;26.57;17.50;;;1.20;99.90;;;;;;5026195;28;20187;-65
2023/02/15 08:06:01;;;;;;;28.67;17.97;;;1.40;99.90;;;;;;5018712;28;20237;-64
2023/02/15 08:08:29;;;;;;;24.30;17.30;;;0.90;99.90;;;;;;5019430;28;20262;-65
2023/02/15 08:11:32;;;;;;;24.35;18.05;;;1.50;99.90;;;;;;5018715;28;20275;-64
2023/02/15 08:14:02;;;;;;;25.52;17.33;;;1.60;99.90;;;;;;5014940;28;20182;-63
2023/02/15 08:16:33;;;;;;;33.47;17.98;;;1.50;99.90;;;;;;5006754;28;20218;-65
2023/02/15 08:19:09;;;;;;;24.98;18.25;;;1.30;99.90;;;;;;5012007;28;20191;-63
2023/02/15 08:21:37;;;;;;;27.77;17.65;;;1.90;99.90;;;;;;5017914;28;20199;-65
2023/02/15 08:24:03;;;;;;;27.88;17.00;;;1.90;99.90;;;;;;5012475;28;20184;-66
2023/02/15 08:26:30;;;;;;;23.15;17.70;;;1.80;99.90;;;;;;5012009;28;20221;-65
2023/02/15 08:28:57;;;;;;;27.35;18.70;;;2.00;99.90;;;;;;5013516;28;20691;-63
2023/02/15 08:31:23;;;;;;;25.77;18.35;;;1.70;99.90;;;;;;5010240;28;20293;-66
2023/02/15 08:33:49;;;;;;;25.77;18.07;;;1.50;99.90;;;;;;5009669;28;20275;-65
2023/02/15 08:36:18;;;;;;;27.10;18.05;;;1.60;99.90;;;;;;5014065;28;20470;-66
2023/02/15 08:38:44;;;;;;;26.65;16.58;;;1.60;99.90;;;;;;5016959;28;20245;-65
2023/02/15 08:41:18;;;;;;;24.90;18.90;;;1.60;99.90;;;;;;5011775;28;20184;-66
2023/02/15 08:43:46;;;;;;;23.42;18.02;;;2.20;99.90;;;;;;5009369;28;20659;-65
2023/02/15 08:46:14;;;;;;;28.35;18.92;;;1.70;99.90;;;;;;5012291;28;20670;-66
2023/02/15 08:48:40;;;;;;;25.83;17.40;;;2.80;99.90;;;;;;5020204;28;20261;-64
2023/02/15 08:51:12;;;;;;;25.27;18.63;;;2.40;99.90;;;;;;5019191;28;20672;-65
2023/02/15 08:53:39;;;;;;;26.58;18.23;;;2.60;99.90;;;;;;5012851;28;20265;-64
2023/02/15 08:56:05;;;;;;;26.02;18.00;;;1.90;99.90;;;;;;5012752;28;20202;-63
2023/02/15 08:58:31;;;;;;;26.20;18.13;;;2.60;99.90;;;;;;5008656;28;20198;-65
2023/02/15 09:00:57;;;;;;;26.25;18.95;;;2.60;99.90;;;;;;5009397;28;20465;-65
2023/02/15 09:03:23;;;;;;;25.77;18.88;;;2.40;99.90;;;;;;5009970;28;20285;-65
2023/02/15 09:05:49;;;;;;;21.87;17.20;;;3.80;99.90;;;;;;5009285;28;20292;-64
2023/02/15 09:08:15;;;;;;;20.80;17.60;;;3.70;99.90;;;;;;5007175;28;20617;-63
2023/02/15 09:10:40;;;;;;;24.03;18.50;;;4.30;99.90;;;;;;5017277;28;20444;-64
2023/02/15 09:13:06;;;;;;;22.07;17.03;;;6.30;99.90;;;;;;5020382;28;20670;-65
2023/02/15 09:15:31;;;;;;;22.13;16.37;;;7.00;99.90;;;;;;5018627;28;20261;-65
2023/02/15 09:18:01;;;;;;;26.97;17.50;;;8.40;98.50;;;;;;5021828;28;20207;-65
2023/02/15 09:20:27;;;;;;;21.05;16.55;;;8.40;96.20;;;;;;5010575;28;20226;-65
2023/02/15 09:22:54;;;;;;;20.85;17.38;;;8.90;95.30;;;;;;5022789;28;20210;-65
2023/02/15 09:25:19;;;;;;;21.70;16.77;;;9.00;94.40;;;;;;5014253;28;20183;-64
2023/02/15 09:27:45;;;;;;;21.03;16.10;;;8.50;95.20;;;;;;5016793;28;20221;-64
2023/02/15 09:30:11;;;;;;;23.07;17.43;;;8.20;95.70;;;;;;5009841;28;20217;-68
2023/02/15 09:32:36;;;;;;;24.77;17.90;;;7.60;96.40;;;;;;5015249;28;20580;-64
2023/02/15 09:35:02;;;;;;;22.80;16.10;;;7.90;96.80;;;;;;5021722;28;20218;-63
2023/02/15 09:37:29;;;;;;;21.00;17.20;;;8.10;96.10;;;;;;5019090;28;20691;-64
2023/02/15 09:39:55;;;;;;;17.70;15.10;;;9.20;94.90;;;;;;5011950;28;20386;-64
2023/02/15 09:42:37;;;;;;;23.93;17.10;;;9.90;93.20;;;;;;5014983;28;20287;-64
2023/02/15 09:45:11;;;;;;;21.00;16.33;;;10.00;91.70;;;;;;5010152;28;20189;-67
2023/02/15 09:47:58;;;;;;;19.00;16.10;;;10.10;91.50;;;;;;5013781;28;20261;-68
2023/02/15 09:50:41;;;;;;;20.33;15.93;;;9.30;92.50;;;;;;5013026;28;20191;-66
2023/02/15 09:53:54;;;;;;;20.05;17.20;;;8.90;93.40;;;;;;5010563;28;20278;-68
2023/02/15 09:56:39;;;;;;;21.40;17.20;;;10.20;92.50;;;;;;4992648;28;20259;-67
2023/02/15 09:59:09;;;;;;;21.30;17.40;;;9.90;92.10;;;;;;4995172;28;20176;-66
2023/02/15 10:01:52;;;;;;;20.70;17.00;;;10.90;90.30;;;;;;5008915;28;20205;-66
2023/02/15 10:04:43;;;;;;;21.52;18.58;;;11.40;89.10;;;;;;5016012;28;20230;-69
2023/02/15 10:07:40;;;;;;;20.20;16.60;;;11.60;86.90;;;;;;5017465;28;20297;-67
2023/02/15 10:10:41;;;;;;;18.75;16.75;;;12.60;85.70;;;;;;5014004;28;20196;-65
2023/02/15 10:13:41;;;;;;;21.30;16.98;;;13.10;82.20;;;;;;5021798;28;20214;-70
2023/02/15 10:16:41;;;;;;;23.60;17.73;;;13.30;81.10;;;;;;5017875;28;20240;-66
2023/02/15 10:19:54;;;;;;;19.70;17.42;;;12.40;81.80;;;;;;5018118;28;20234;-66
2023/02/15 10:22:46;;;;;;;23.25;17.65;;;12.10;82.10;;;;;;5015116;28;20188;-67
2023/02/15 10:25:30;;;;;;;20.02;17.60;;;12.10;82.90;;;;;;5021367;28;20190;-64
2023/02/15 10:28:02;;;;;;;25.95;18.13;;;11.80;83.40;;;;;;5013009;28;20217;-67
2023/02/15 10:30:51;;;;;;;25.23;18.77;;;11.30;85.10;;;;;;5014918;28;20198;-67
2023/02/15 10:33:40;;;;;;;25.42;17.65;;;11.40;86.40;;;;;;5014270;28;20222;-66
2023/02/15 10:36:25;;;;;;;23.52;17.60;;;11.10;86.80;;;;;;5011837;28;20208;-66
2023/02/15 10:39:26;;;;;;;23.63;19.25;;;10.60;89.10;;;;;;5017925;28;20204;-66
2023/02/15 10:42:06;;;;;;;21.95;18.00;;;10.40;89.00;;;;;;5017287;28;20187;-66
2023/02/15 10:44:40;;;;;;;24.75;18.98;;;11.10;88.00;;;;;;5021076;28;20178;-66
2023/02/15 10:47:23;;;;;;;24.05;18.83;;;11.40;86.10;;;;;;5001346;28;20203;-67
2023/02/15 10:49:55;;;;;;;22.42;18.48;;;11.60;85.80;;;;;;5019110;28;20358;-66
2023/02/15 10:52:46;;;;;;;19.20;16.60;;;12.70;83.70;;;;;;5011901;28;20627;-66
2023/02/15 10:55:46;;;;;;;24.45;17.92;;;13.30;81.10;;;;;;5007988;28;20175;-66
2023/02/15 10:58:47;;;;;;;23.58;19.17;;;13.70;77.90;;;;;;5007333;28;20253;-66
2023/02/15 11:01:30;;;;;;;21.92;17.45;;;13.80;77.80;;;;;;5026183;28;20249;-67
2023/02/15 11:04:24;;;;;;;20.45;17.80;;;13.90;77.50;;;;;;5010611;28;20180;-65
2023/02/15 11:06:57;;;;;;;23.40;18.10;;;14.30;75.90;;;;;;5007265;28;20679;-68
2023/02/15 11:09:29;;;;;;;20.08;17.58;;;14.60;74.40;;;;;;5010565;28;20667;-66
2023/02/15 11:11:59;;;;;;;21.73;19.52;;;14.20;73.90;;;;;;5008951;28;20293;-65
2023/02/15 11:14:45;;;;;;;21.80;18.02;;;13.30;76.30;;;;;;5012886;28;20190;-66
2023/02/15 11:17:15;;;;;;;23.85;18.60;;;14.00;77.30;;;;;;5006657;28;20726;-66
2023/02/15 11:19:57;;;;;;;23.67;18.45;;;14.40;74.90;;;;;;5014095;28;20179;-66
2023/02/15 11:22:23;;;;;;;25.33;20.50;;;15.00;73.60;;;;;;5015336;28;20333;-66
2023/02/15 11:24:49;;;;;;;20.20;17.98;;;15.70;71.70;;;;;;5025412;28;20190;-66
2023/02/15 11:27:25;;;;;;;27.43;19.30;;;16.00;70.60;;;;;;5015260;28;20226;-66
2023/02/15 11:30:00;;;;;;;25.15;18.00;;;16.20;68.60;;;;;;5009710;28;20949;-67
2023/02/15 11:32:28;;;;;;;22.25;19.30;;;15.60;69.90;;;;;;5010190;28;20213;-66
2023/02/15 11:35:11;;;;;;;22.83;20.33;;;16.10;70.20;;;;;;5015895;28;20197;-67
2023/02/15 11:37:43;;;;;;;22.02;19.17;;;15.30;70.30;;;;;;5014104;28;20205;-67
2023/02/15 11:40:28;;;;;;;22.05;19.05;;;15.30;69.70;;;;;;5013784;28;20935;-67
2023/02/15 11:43:05;;;;;;;23.42;19.08;;;14.80;71.00;;;;;;5020425;28;20186;-67
2023/02/15 11:45:34;;;;;;;25.83;20.45;;;15.70;71.50;;;;;;5030145;28;20186;-64
2023/02/15 11:48:01;;;;;;;21.92;19.55;;;15.30;69.80;;;;;;5013571;28;20210;-64
2023/02/15 11:50:31;;;;;;;25.60;19.30;;;14.60;72.60;;;;;;5006413;28;20191;-64
2023/02/15 11:53:00;;;;;;;22.88;20.10;;;14.30;72.50;;;;;;5017617;28;20210;-64
2023/02/15 11:55:28;;;;;;;22.27;19.95;;;14.30;73.90;;;;;;5028963;28;20205;-65
2023/02/15 11:58:28;;;;;;;21.38;19.08;;;13.70;74.70;;;;;;5022150;28;20622;-67
2023/02/15 12:01:02;;;;;;;22.08;18.23;;;13.70;76.00;;;;;;5008156;28;20255;-67
2023/02/15 12:03:51;;;;;;;25.35;18.58;;;13.40;77.00;;;;;;5006086;28;20193;-66
2023/02/15 12:06:34;;;;;;;25.67;20.33;;;13.00;78.20;;;;;;5009332;28;20211;-66
2023/02/15 12:09:09;;;;;;;26.95;20.17;;;12.80;80.40;;;;;;5015892;28;20186;-66
2023/02/15 12:11:38;;;;;;;22.40;19.13;;;12.40;81.70;;;;;;5017001;28;20206;-65
2023/02/15 12:14:07;;;;;;;22.70;20.25;;;12.30;82.00;;;;;;5024210;28;20187;-66
2023/02/15 12:16:57;;;;;;;25.17;19.33;;;12.20;82.20;;;;;;5013699;28;20353;-66
2023/02/15 12:19:55;;;;;;;20.52;18.17;;;12.20;83.10;;;;;;5008978;28;20273;-66
2023/02/15 12:22:28;;;;;;;21.40;19.10;;;12.60;82.70;;;;;;5016421;28;20205;-66
2023/02/15 12:25:00;;;;;;;22.45;18.13;;;12.50;82.50;;;;;;5017741;28;20215;-66
2023/02/15 12:27:29;;;;;;;23.73;18.95;;;12.70;82.90;;;;;;5022993;28;20302;-65
2023/02/15 12:30:03;;;;;;;23.10;18.30;;;11.70;82.80;;;;;;5025827;28;20179;-64
2023/02/15 12:32:34;;;;;;;22.38;19.95;;;11.90;84.70;;;;;;5013653;28;20204;-66
2023/02/15 12:35:08;;;;;;;22.33;18.95;;;11.70;85.50;;;;;;5023587;28;20229;-64
2023/02/15 12:37:34;;;;;;;20.23;17.92;;;12.40;85.90;;;;;;5020019;28;20210;-66
2023/02/15 12:40:02;;;;;;;23.02;19.40;;;12.20;85.50;;;;;;5020166;28;20174;-66
2023/02/15 12:42:42;;;;;;;22.55;18.67;;;12.30;85.70;;;;;;5017601;28;20268;-65
2023/02/15 12:45:32;;;;;;;24.45;19.58;;;12.00;86.20;;;;;;5014312;28;20178;-65
2023/02/15 12:48:13;;;;;;;22.30;19.95;;;11.90;86.50;;;;;;5017098;28;20259;-65
2023/02/15 12:50:40;;;;;;;22.30;19.90;;;11.60;87.70;;;;;;5016931;28;20194;-65
2023/02/15 12:53:19;;;;;;;25.45;19.35;;;11.50;88.80;;;;;;5020136;28;20293;-64
2023/02/15 12:55:57;;;;;;;25.38;20.02;;;11.40;89.20;;;;;;5020972;28;20667;-66
2023/02/15 12:58:25;;;;;;;24.08;19.95;;;11.60;89.60;;;;;;5016737;28;20251;-66
2023/02/15 13:01:03;;;;;;;22.90;20.20;;;11.40;89.90;;;;;;5001169;28;20246;-64
2023/02/15 13:03:29;;;;;;;26.17;21.95;;;11.30;90.10;;;;;;5006838;28;20251;-65
2023/02/15 13:05:57;;;;;;;29.33;23.08;;;11.50;90.20;;;;;;5006346;28;20205;-67
2023/02/15 13:08:27;;;;;;;24.70;21.00;;;11.10;90.30;;;;;;5009712;28;20244;-66
2023/02/15 13:11:09;;;;;;;22.88;20.38;;;11.20;90.40;;;;;;5018911;28;20182;-66
2023/02/15 13:13:56;;;;;;;23.70;20.98;;;11.10;90.60;;;;;;4999539;28;20260;-67
2023/02/15 13:16:32;;;;;;;27.50;19.83;;;11.50;91.10;;;;;;5009131;28;20216;-67
2023/02/15 13:19:23;;;;;;;22.92;20.52;;;11.30;90.80;;;;;;5013848;28;20189;-68
2023/02/15 13:21:51;;;;;;;23.55;21.00;;;11.20;90.60;;;;;;5006495;28;20259;-68
2023/02/15 13:24:37;;;;;;;22.20;19.85;;;11.30;90.90;;;;;;5033052;28;20182;-68